sensor_id;sensor_type;location;lat;lon;timestamp;P1;durP1;ratioP1;P2;durP2;ratioP2
21110;SDS011;10713;51.912;4.494;2022-07-23T00:00:30;4.38;;;2.17;;
21110;SDS011;10713;51.912;4.494;2022-07-23T00:02:55;3.28;;;2.03;;
21110;SDS011;10713;51.912;4.494;2022-07-23T00:05:21;4.13;;;2.13;;
21110;SDS011;10713;51.912;4.494;2022-07-23T00:07:46;6.13;;;2.53;;
21110;SDS011;10713;51.912;4.494;2022-07-23T00:10:12;3.53;;;2.25;;
21110;SDS011;10713;51.912;4.494;2022-07-23T00:12:37;6.50;;;2.50;;
21110;SDS011;10713;51.912;4.494;2022-07-23T00:15:04;3.38;;;2.03;;
21110;SDS011;10713;51.912;4.494;2022-07-23T00:17:30;4.65;;;2.35;;
21110;SDS011;10713;51.912;4.494;2022-07-23T00:19:55;5.35;;;2.30;;
21110;SDS011;10713;51.912;4.494;2022-07-23T00:22:20;5.35;;;2.60;;
21110;SDS011;10713;51.912;4.494;2022-07-23T00:24:46;4.78;;;2.50;;
21110;SDS011;10713;51.912;4.494;2022-07-23T00:27:11;5.07;;;2.60;;
21110;SDS011;10713;51.912;4.494;2022-07-23T00:29:36;7.22;;;2.88;;
21110;SDS011;10713;51.912;4.494;2022-07-23T00:32:02;5.65;;;2.85;;
21110;SDS011;10713;51.912;4.494;2022-07-23T00:34:27;6.82;;;2.63;;
21110;SDS011;10713;51.912;4.494;2022-07-23T00:36:53;4.00;;;2.50;;
21110;SDS011;10713;51.912;4.494;2022-07-23T00:39:19;4.82;;;2.88;;
21110;SDS011;10713;51.912;4.494;2022-07-23T00:41:46;5.78;;;3.00;;
21110;SDS011;10713;51.912;4.494;2022-07-23T00:46:52;7.30;;;2.83;;
21110;SDS011;10713;51.912;4.494;2022-07-23T00:49:25;6.57;;;2.97;;
21110;SDS011;10713;51.912;4.494;2022-07-23T00:51:52;4.35;;;3.20;;
21110;SDS011;10713;51.912;4.494;2022-07-23T00:54:19;7.88;;;3.67;;
21110;SDS011;10713;51.912;4.494;2022-07-23T00:56:45;9.77;;;3.20;;
21110;SDS011;10713;51.912;4.494;2022-07-23T00:59:11;6.63;;;3.50;;
21110;SDS011;10713;51.912;4.494;2022-07-23T01:01:37;4.85;;;3.45;;
21110;SDS011;10713;51.912;4.494;2022-07-23T01:04:03;6.38;;;3.40;;
21110;SDS011;10713;51.912;4.494;2022-07-23T01:06:30;6.55;;;3.22;;
21110;SDS011;10713;51.912;4.494;2022-07-23T01:09:00;10.40;;;3.88;;
21110;SDS011;10713;51.912;4.494;2022-07-23T01:11:26;5.32;;;3.55;;
21110;SDS011;10713;51.912;4.494;2022-07-23T01:13:52;4.47;;;3.22;;
21110;SDS011;10713;51.912;4.494;2022-07-23T01:16:19;5.75;;;3.70;;
21110;SDS011;10713;51.912;4.494;2022-07-23T01:18:44;7.47;;;3.45;;
21110;SDS011;10713;51.912;4.494;2022-07-23T01:21:10;6.45;;;3.88;;
21110;SDS011;10713;51.912;4.494;2022-07-23T01:23:38;7.18;;;3.67;;
21110;SDS011;10713;51.912;4.494;2022-07-23T01:26:03;6.63;;;3.58;;
21110;SDS011;10713;51.912;4.494;2022-07-23T01:28:29;6.18;;;3.28;;
21110;SDS011;10713;51.912;4.494;2022-07-23T01:30:54;8.10;;;4.25;;
21110;SDS011;10713;51.912;4.494;2022-07-23T01:33:19;5.35;;;3.65;;
21110;SDS011;10713;51.912;4.494;2022-07-23T01:35:45;6.28;;;3.83;;
21110;SDS011;10713;51.912;4.494;2022-07-23T01:38:10;6.15;;;4.22;;
21110;SDS011;10713;51.912;4.494;2022-07-23T01:40:36;11.02;;;4.10;;
21110;SDS011;10713;51.912;4.494;2022-07-23T01:43:01;9.43;;;3.78;;
21110;SDS011;10713;51.912;4.494;2022-07-23T01:45:26;8.38;;;4.40;;
21110;SDS011;10713;51.912;4.494;2022-07-23T01:47:52;8.55;;;3.90;;
21110;SDS011;10713;51.912;4.494;2022-07-23T01:50:17;6.53;;;4.10;;
21110;SDS011;10713;51.912;4.494;2022-07-23T01:52:43;10.35;;;4.05;;
21110;SDS011;10713;51.912;4.494;2022-07-23T01:55:08;6.70;;;3.38;;
21110;SDS011;10713;51.912;4.494;2022-07-23T01:57:34;6.57;;;3.90;;
21110;SDS011;10713;51.912;4.494;2022-07-23T01:59:59;5.55;;;3.65;;
21110;SDS011;10713;51.912;4.494;2022-07-23T02:02:24;7.65;;;3.75;;
21110;SDS011;10713;51.912;4.494;2022-07-23T02:04:50;4.75;;;3.20;;
21110;SDS011;10713;51.912;4.494;2022-07-23T02:07:16;11.98;;;4.18;;
21110;SDS011;10713;51.912;4.494;2022-07-23T02:09:41;6.72;;;3.42;;
21110;SDS011;10713;51.912;4.494;2022-07-23T02:12:07;7.13;;;3.60;;
21110;SDS011;10713;51.912;4.494;2022-07-23T02:14:32;5.00;;;3.50;;
21110;SDS011;10713;51.912;4.494;2022-07-23T02:16:57;5.20;;;3.20;;
21110;SDS011;10713;51.912;4.494;2022-07-23T02:19:23;5.35;;;3.38;;
21110;SDS011;10713;51.912;4.494;2022-07-23T02:21:48;5.38;;;3.38;;
21110;SDS011;10713;51.912;4.494;2022-07-23T02:24:14;5.90;;;3.25;;
21110;SDS011;10713;51.912;4.494;2022-07-23T02:26:39;6.65;;;3.20;;
21110;SDS011;10713;51.912;4.494;2022-07-23T02:29:05;5.15;;;3.38;;
21110;SDS011;10713;51.912;4.494;2022-07-23T02:31:30;5.85;;;3.45;;
21110;SDS011;10713;51.912;4.494;2022-07-23T02:33:55;7.00;;;3.53;;
21110;SDS011;10713;51.912;4.494;2022-07-23T02:36:21;8.40;;;3.40;;
21110;SDS011;10713;51.912;4.494;2022-07-23T02:38:48;3.95;;;3.35;;
21110;SDS011;10713;51.912;4.494;2022-07-23T02:41:14;9.65;;;3.80;;
21110;SDS011;10713;51.912;4.494;2022-07-23T02:43:39;8.70;;;4.28;;
21110;SDS011;10713;51.912;4.494;2022-07-23T02:46:04;5.63;;;3.92;;
21110;SDS011;10713;51.912;4.494;2022-07-23T02:48:30;5.13;;;3.78;;
21110;SDS011;10713;51.912;4.494;2022-07-23T02:50:55;10.35;;;4.03;;
21110;SDS011;10713;51.912;4.494;2022-07-23T02:53:21;6.63;;;3.50;;
21110;SDS011;10713;51.912;4.494;2022-07-23T02:55:48;7.38;;;3.85;;
21110;SDS011;10713;51.912;4.494;2022-07-23T02:58:13;7.35;;;3.72;;
21110;SDS011;10713;51.912;4.494;2022-07-23T03:00:39;8.10;;;3.40;;
21110;SDS011;10713;51.912;4.494;2022-07-23T03:03:04;5.53;;;3.63;;
21110;SDS011;10713;51.912;4.494;2022-07-23T03:05:30;5.07;;;3.83;;
21110;SDS011;10713;51.912;4.494;2022-07-23T03:07:55;4.35;;;3.75;;
21110;SDS011;10713;51.912;4.494;2022-07-23T03:10:20;5.22;;;3.70;;
21110;SDS011;10713;51.912;4.494;2022-07-23T03:12:45;8.52;;;4.30;;
21110;SDS011;10713;51.912;4.494;2022-07-23T03:15:11;6.45;;;3.97;;
21110;SDS011;10713;51.912;4.494;2022-07-23T03:17:36;7.70;;;3.78;;
21110;SDS011;10713;51.912;4.494;2022-07-23T03:20:02;5.50;;;3.65;;
21110;SDS011;10713;51.912;4.494;2022-07-23T03:22:27;5.40;;;4.00;;
21110;SDS011;10713;51.912;4.494;2022-07-23T03:24:53;5.93;;;4.07;;
21110;SDS011;10713;51.912;4.494;2022-07-23T03:27:18;6.57;;;3.67;;
21110;SDS011;10713;51.912;4.494;2022-07-23T03:29:44;6.95;;;3.60;;
21110;SDS011;10713;51.912;4.494;2022-07-23T03:32:09;8.35;;;4.50;;
21110;SDS011;10713;51.912;4.494;2022-07-23T03:34:35;7.05;;;3.95;;
21110;SDS011;10713;51.912;4.494;2022-07-23T03:37:00;7.80;;;4.20;;
21110;SDS011;10713;51.912;4.494;2022-07-23T03:39:26;9.00;;;4.03;;
21110;SDS011;10713;51.912;4.494;2022-07-23T03:41:51;6.53;;;4.07;;
21110;SDS011;10713;51.912;4.494;2022-07-23T03:44:17;8.98;;;4.45;;
21110;SDS011;10713;51.912;4.494;2022-07-23T03:46:42;8.38;;;4.20;;
21110;SDS011;10713;51.912;4.494;2022-07-23T03:49:07;7.13;;;4.07;;
21110;SDS011;10713;51.912;4.494;2022-07-23T03:51:33;7.55;;;3.95;;
21110;SDS011;10713;51.912;4.494;2022-07-23T03:53:58;6.05;;;3.65;;
21110;SDS011;10713;51.912;4.494;2022-07-23T03:56:23;6.03;;;3.50;;
21110;SDS011;10713;51.912;4.494;2022-07-23T03:58:49;7.05;;;3.88;;
21110;SDS011;10713;51.912;4.494;2022-07-23T04:01:14;5.95;;;3.30;;
21110;SDS011;10713;51.912;4.494;2022-07-23T04:03:40;6.88;;;3.15;;
21110;SDS011;10713;51.912;4.494;2022-07-23T04:06:05;9.10;;;3.30;;
21110;SDS011;10713;51.912;4.494;2022-07-23T04:08:31;8.23;;;3.47;;
21110;SDS011;10713;51.912;4.494;2022-07-23T04:10:56;5.78;;;3.50;;
21110;SDS011;10713;51.912;4.494;2022-07-23T04:13:22;8.02;;;3.20;;
21110;SDS011;10713;51.912;4.494;2022-07-23T04:15:47;7.65;;;3.78;;
21110;SDS011;10713;51.912;4.494;2022-07-23T04:18:13;6.13;;;3.40;;
21110;SDS011;10713;51.912;4.494;2022-07-23T04:20:38;5.78;;;3.20;;
21110;SDS011;10713;51.912;4.494;2022-07-23T04:23:04;6.43;;;3.28;;
21110;SDS011;10713;51.912;4.494;2022-07-23T04:25:29;3.75;;;2.90;;
21110;SDS011;10713;51.912;4.494;2022-07-23T04:27:55;3.10;;;2.75;;
21110;SDS011;10713;51.912;4.494;2022-07-23T04:30:20;7.32;;;3.30;;
21110;SDS011;10713;51.912;4.494;2022-07-23T04:32:45;7.68;;;3.35;;
21110;SDS011;10713;51.912;4.494;2022-07-23T04:35:11;8.40;;;3.53;;
21110;SDS011;10713;51.912;4.494;2022-07-23T04:37:36;6.57;;;3.08;;
21110;SDS011;10713;51.912;4.494;2022-07-23T04:40:02;5.95;;;3.20;;
21110;SDS011;10713;51.912;4.494;2022-07-23T04:42:27;7.53;;;3.40;;
21110;SDS011;10713;51.912;4.494;2022-07-23T04:44:53;6.30;;;3.28;;
21110;SDS011;10713;51.912;4.494;2022-07-23T04:47:18;7.75;;;3.20;;
21110;SDS011;10713;51.912;4.494;2022-07-23T04:49:43;5.93;;;3.00;;
21110;SDS011;10713;51.912;4.494;2022-07-23T04:52:09;5.93;;;2.90;;
21110;SDS011;10713;51.912;4.494;2022-07-23T04:54:34;5.90;;;2.70;;
21110;SDS011;10713;51.912;4.494;2022-07-23T04:56:59;8.88;;;3.70;;
21110;SDS011;10713;51.912;4.494;2022-07-23T04:59:25;5.20;;;2.70;;
21110;SDS011;10713;51.912;4.494;2022-07-23T05:01:50;3.83;;;2.60;;
21110;SDS011;10713;51.912;4.494;2022-07-23T05:04:15;5.65;;;2.92;;
21110;SDS011;10713;51.912;4.494;2022-07-23T05:06:41;5.32;;;2.85;;
21110;SDS011;10713;51.912;4.494;2022-07-23T05:09:06;7.53;;;2.33;;
21110;SDS011;10713;51.912;4.494;2022-07-23T05:11:31;6.82;;;2.33;;
21110;SDS011;10713;51.912;4.494;2022-07-23T05:13:57;2.92;;;2.20;;
21110;SDS011;10713;51.912;4.494;2022-07-23T05:16:22;7.20;;;2.70;;
21110;SDS011;10713;51.912;4.494;2022-07-23T05:18:47;3.72;;;2.40;;
21110;SDS011;10713;51.912;4.494;2022-07-23T05:21:13;5.63;;;2.35;;
21110;SDS011;10713;51.912;4.494;2022-07-23T05:23:38;5.53;;;2.50;;
21110;SDS011;10713;51.912;4.494;2022-07-23T05:26:03;2.85;;;1.95;;
21110;SDS011;10713;51.912;4.494;2022-07-23T05:28:29;5.90;;;2.30;;
21110;SDS011;10713;51.912;4.494;2022-07-23T05:30:54;5.45;;;2.30;;
21110;SDS011;10713;51.912;4.494;2022-07-23T05:33:19;6.47;;;2.50;;
21110;SDS011;10713;51.912;4.494;2022-07-23T05:35:45;5.88;;;2.60;;
21110;SDS011;10713;51.912;4.494;2022-07-23T05:38:10;7.20;;;2.70;;
21110;SDS011;10713;51.912;4.494;2022-07-23T05:40:35;5.78;;;2.80;;
21110;SDS011;10713;51.912;4.494;2022-07-23T05:43:01;6.03;;;2.88;;
21110;SDS011;10713;51.912;4.494;2022-07-23T05:45:26;6.90;;;2.58;;
21110;SDS011;10713;51.912;4.494;2022-07-23T05:47:52;7.45;;;2.67;;
21110;SDS011;10713;51.912;4.494;2022-07-23T05:50:17;6.72;;;2.42;;
21110;SDS011;10713;51.912;4.494;2022-07-23T05:52:42;3.13;;;2.10;;
21110;SDS011;10713;51.912;4.494;2022-07-23T05:55:09;5.47;;;2.05;;
21110;SDS011;10713;51.912;4.494;2022-07-23T05:57:35;10.45;;;2.78;;
21110;SDS011;10713;51.912;4.494;2022-07-23T06:00:03;8.32;;;2.65;;
21110;SDS011;10713;51.912;4.494;2022-07-23T06:02:30;4.55;;;1.83;;
21110;SDS011;10713;51.912;4.494;2022-07-23T06:04:55;4.72;;;1.40;;
21110;SDS011;10713;51.912;4.494;2022-07-23T06:07:20;6.68;;;1.75;;
21110;SDS011;10713;51.912;4.494;2022-07-23T06:09:46;2.88;;;1.50;;
21110;SDS011;10713;51.912;4.494;2022-07-23T06:12:12;4.38;;;1.63;;
21110;SDS011;10713;51.912;4.494;2022-07-23T06:14:37;6.05;;;1.13;;
21110;SDS011;10713;51.912;4.494;2022-07-23T06:17:03;4.05;;;1.10;;
21110;SDS011;10713;51.912;4.494;2022-07-23T06:19:28;4.60;;;1.60;;
21110;SDS011;10713;51.912;4.494;2022-07-23T06:21:53;3.70;;;1.55;;
21110;SDS011;10713;51.912;4.494;2022-07-23T06:24:19;9.25;;;1.90;;
21110;SDS011;10713;51.912;4.494;2022-07-23T06:26:44;4.47;;;1.73;;
21110;SDS011;10713;51.912;4.494;2022-07-23T06:29:09;2.80;;;1.67;;
21110;SDS011;10713;51.912;4.494;2022-07-23T06:31:35;2.85;;;1.40;;
21110;SDS011;10713;51.912;4.494;2022-07-23T06:34:00;3.38;;;1.60;;
21110;SDS011;10713;51.912;4.494;2022-07-23T06:36:25;4.03;;;1.50;;
21110;SDS011;10713;51.912;4.494;2022-07-23T06:38:51;3.15;;;1.75;;
21110;SDS011;10713;51.912;4.494;2022-07-23T06:41:17;3.05;;;1.83;;
21110;SDS011;10713;51.912;4.494;2022-07-23T06:43:42;2.85;;;1.40;;
21110;SDS011;10713;51.912;4.494;2022-07-23T06:46:08;3.17;;;1.50;;
21110;SDS011;10713;51.912;4.494;2022-07-23T06:48:33;3.40;;;1.50;;
21110;SDS011;10713;51.912;4.494;2022-07-23T06:51:00;5.20;;;1.50;;
21110;SDS011;10713;51.912;4.494;2022-07-23T06:53:26;5.72;;;1.88;;
21110;SDS011;10713;51.912;4.494;2022-07-23T06:55:51;2.22;;;1.42;;
21110;SDS011;10713;51.912;4.494;2022-07-23T06:58:17;4.15;;;1.40;;
21110;SDS011;10713;51.912;4.494;2022-07-23T07:00:44;3.25;;;1.27;;
21110;SDS011;10713;51.912;4.494;2022-07-23T07:03:09;3.75;;;1.40;;
21110;SDS011;10713;51.912;4.494;2022-07-23T07:05:35;6.72;;;1.77;;
21110;SDS011;10713;51.912;4.494;2022-07-23T07:08:00;3.50;;;1.50;;
21110;SDS011;10713;51.912;4.494;2022-07-23T07:10:25;5.85;;;1.50;;
21110;SDS011;10713;51.912;4.494;2022-07-23T07:12:51;2.55;;;1.50;;
21110;SDS011;10713;51.912;4.494;2022-07-23T07:15:16;7.63;;;1.70;;
21110;SDS011;10713;51.912;4.494;2022-07-23T07:17:42;4.75;;;1.58;;
21110;SDS011;10713;51.912;4.494;2022-07-23T07:20:07;4.53;;;1.40;;
21110;SDS011;10713;51.912;4.494;2022-07-23T07:22:33;2.47;;;1.45;;
21110;SDS011;10713;51.912;4.494;2022-07-23T07:24:59;3.50;;;1.38;;
21110;SDS011;10713;51.912;4.494;2022-07-23T07:27:24;2.67;;;1.48;;
21110;SDS011;10713;51.912;4.494;2022-07-23T07:29:49;2.75;;;1.48;;
21110;SDS011;10713;51.912;4.494;2022-07-23T07:32:15;4.60;;;1.40;;
21110;SDS011;10713;51.912;4.494;2022-07-23T07:34:40;4.18;;;1.90;;
21110;SDS011;10713;51.912;4.494;2022-07-23T07:37:06;6.22;;;1.48;;
21110;SDS011;10713;51.912;4.494;2022-07-23T07:39:31;3.80;;;1.40;;
21110;SDS011;10713;51.912;4.494;2022-07-23T07:41:56;2.40;;;1.10;;
21110;SDS011;10713;51.912;4.494;2022-07-23T07:44:22;2.00;;;1.50;;
21110;SDS011;10713;51.912;4.494;2022-07-23T07:46:47;4.13;;;1.48;;
21110;SDS011;10713;51.912;4.494;2022-07-23T07:49:12;1.85;;;1.20;;
21110;SDS011;10713;51.912;4.494;2022-07-23T07:51:38;2.28;;;1.20;;
21110;SDS011;10713;51.912;4.494;2022-07-23T07:54:03;2.47;;;1.60;;
21110;SDS011;10713;51.912;4.494;2022-07-23T07:56:29;4.13;;;1.60;;
21110;SDS011;10713;51.912;4.494;2022-07-23T07:58:54;5.72;;;1.40;;
21110;SDS011;10713;51.912;4.494;2022-07-23T08:01:20;3.92;;;1.42;;
21110;SDS011;10713;51.912;4.494;2022-07-23T08:03:45;2.63;;;1.20;;
21110;SDS011;10713;51.912;4.494;2022-07-23T08:06:11;6.35;;;1.52;;
21110;SDS011;10713;51.912;4.494;2022-07-23T08:08:36;4.20;;;1.92;;
21110;SDS011;10713;51.912;4.494;2022-07-23T08:11:02;4.10;;;1.45;;
21110;SDS011;10713;51.912;4.494;2022-07-23T08:13:27;3.60;;;1.70;;
21110;SDS011;10713;51.912;4.494;2022-07-23T08:15:52;2.20;;;1.45;;
21110;SDS011;10713;51.912;4.494;2022-07-23T08:18:18;4.37;;;1.73;;
21110;SDS011;10713;51.912;4.494;2022-07-23T08:20:44;2.30;;;1.80;;
21110;SDS011;10713;51.912;4.494;2022-07-23T08:23:09;5.72;;;2.13;;
21110;SDS011;10713;51.912;4.494;2022-07-23T08:25:37;3.97;;;1.77;;
21110;SDS011;10713;51.912;4.494;2022-07-23T08:28:05;4.55;;;1.83;;
21110;SDS011;10713;51.912;4.494;2022-07-23T08:30:33;6.18;;;2.60;;
21110;SDS011;10713;51.912;4.494;2022-07-23T08:33:00;3.75;;;2.00;;
21110;SDS011;10713;51.912;4.494;2022-07-23T08:35:30;4.75;;;2.17;;
21110;SDS011;10713;51.912;4.494;2022-07-23T08:38:21;5.35;;;2.60;;
21110;SDS011;10713;51.912;4.494;2022-07-23T08:40:48;4.05;;;2.05;;
21110;SDS011;10713;51.912;4.494;2022-07-23T08:43:19;4.50;;;1.95;;
21110;SDS011;10713;51.912;4.494;2022-07-23T08:45:48;4.55;;;2.70;;
21110;SDS011;10713;51.912;4.494;2022-07-23T08:48:16;5.13;;;2.20;;
21110;SDS011;10713;51.912;4.494;2022-07-23T08:50:46;5.22;;;2.20;;
21110;SDS011;10713;51.912;4.494;2022-07-23T08:53:13;5.25;;;2.00;;
21110;SDS011;10713;51.912;4.494;2022-07-23T08:55:39;3.75;;;1.70;;
21110;SDS011;10713;51.912;4.494;2022-07-23T08:58:08;6.78;;;2.53;;
21110;SDS011;10713;51.912;4.494;2022-07-23T09:00:33;6.30;;;1.73;;
21110;SDS011;10713;51.912;4.494;2022-07-23T09:02:58;5.82;;;1.70;;
21110;SDS011;10713;51.912;4.494;2022-07-23T09:05:24;3.38;;;1.60;;
21110;SDS011;10713;51.912;4.494;2022-07-23T09:13:28;4.95;;;2.13;;
21110;SDS011;10713;51.912;4.494;2022-07-23T09:18:49;5.40;;;1.73;;
21110;SDS011;10713;51.912;4.494;2022-07-23T09:23:48;4.35;;;1.73;;
21110;SDS011;10713;51.912;4.494;2022-07-23T09:26:32;2.45;;;1.60;;
21110;SDS011;10713;51.912;4.494;2022-07-23T09:29:07;4.63;;;1.70;;
21110;SDS011;10713;51.912;4.494;2022-07-23T09:36:37;9.82;;;2.28;;
21110;SDS011;10713;51.912;4.494;2022-07-23T09:39:03;6.20;;;1.73;;
21110;SDS011;10713;51.912;4.494;2022-07-23T09:41:36;4.95;;;1.70;;
21110;SDS011;10713;51.912;4.494;2022-07-23T09:44:16;6.10;;;1.70;;
21110;SDS011;10713;51.912;4.494;2022-07-23T09:46:44;2.55;;;1.30;;
21110;SDS011;10713;51.912;4.494;2022-07-23T09:49:12;5.78;;;1.95;;
21110;SDS011;10713;51.912;4.494;2022-07-23T09:51:43;5.90;;;1.75;;
21110;SDS011;10713;51.912;4.494;2022-07-23T09:54:20;3.33;;;1.85;;
21110;SDS011;10713;51.912;4.494;2022-07-23T09:56:51;4.45;;;1.40;;
21110;SDS011;10713;51.912;4.494;2022-07-23T09:59:17;4.47;;;1.88;;
21110;SDS011;10713;51.912;4.494;2022-07-23T10:01:44;4.38;;;1.80;;
21110;SDS011;10713;51.912;4.494;2022-07-23T10:04:13;9.65;;;2.50;;
21110;SDS011;10713;51.912;4.494;2022-07-23T10:06:39;3.90;;;1.70;;
21110;SDS011;10713;51.912;4.494;2022-07-23T10:09:06;8.05;;;1.88;;
21110;SDS011;10713;51.912;4.494;2022-07-23T10:11:34;2.30;;;1.35;;
21110;SDS011;10713;51.912;4.494;2022-07-23T10:14:00;3.95;;;1.70;;
21110;SDS011;10713;51.912;4.494;2022-07-23T10:16:28;7.63;;;2.65;;
21110;SDS011;10713;51.912;4.494;2022-07-23T10:18:54;5.90;;;2.50;;
21110;SDS011;10713;51.912;4.494;2022-07-23T10:21:21;9.32;;;3.15;;
21110;SDS011;10713;51.912;4.494;2022-07-23T10:27:02;6.78;;;2.10;;
21110;SDS011;10713;51.912;4.494;2022-07-23T10:37:54;3.55;;;1.50;;
21110;SDS011;10713;51.912;4.494;2022-07-23T10:40:25;6.32;;;1.88;;
21110;SDS011;10713;51.912;4.494;2022-07-23T10:42:51;11.15;;;3.45;;
21110;SDS011;10713;51.912;4.494;2022-07-23T10:48:12;6.55;;;2.10;;
21110;SDS011;10713;51.912;4.494;2022-07-23T10:50:39;4.45;;;1.70;;
21110;SDS011;10713;51.912;4.494;2022-07-23T10:57:56;3.27;;;1.77;;
21110;SDS011;10713;51.912;4.494;2022-07-23T11:02:49;6.53;;;2.10;;
21110;SDS011;10713;51.912;4.494;2022-07-23T11:05:18;3.28;;;1.30;;
21110;SDS011;10713;51.912;4.494;2022-07-23T11:10:32;2.80;;;1.77;;
21110;SDS011;10713;51.912;4.494;2022-07-23T11:19:08;3.42;;;1.90;;
21110;SDS011;10713;51.912;4.494;2022-07-23T11:31:53;2.92;;;1.92;;
21110;SDS011;10713;51.912;4.494;2022-07-23T11:34:30;4.30;;;1.95;;
21110;SDS011;10713;51.912;4.494;2022-07-23T11:36:56;6.28;;;2.00;;
21110;SDS011;10713;51.912;4.494;2022-07-23T11:39:22;2.75;;;1.50;;
21110;SDS011;10713;51.912;4.494;2022-07-23T11:41:51;4.82;;;2.38;;
21110;SDS011;10713;51.912;4.494;2022-07-23T11:46:55;2.58;;;1.63;;
21110;SDS011;10713;51.912;4.494;2022-07-23T11:49:22;4.95;;;1.83;;
21110;SDS011;10713;51.912;4.494;2022-07-23T11:52:01;2.03;;;1.70;;
21110;SDS011;10713;51.912;4.494;2022-07-23T11:54:36;3.22;;;1.67;;
21110;SDS011;10713;51.912;4.494;2022-07-23T11:57:11;3.42;;;1.90;;
21110;SDS011;10713;51.912;4.494;2022-07-23T11:59:36;5.50;;;2.65;;
21110;SDS011;10713;51.912;4.494;2022-07-23T12:02:05;4.15;;;1.83;;
21110;SDS011;10713;51.912;4.494;2022-07-23T12:04:38;5.10;;;2.28;;
21110;SDS011;10713;51.912;4.494;2022-07-23T12:07:04;2.75;;;2.00;;
21110;SDS011;10713;51.912;4.494;2022-07-23T12:09:29;2.45;;;1.63;;
21110;SDS011;10713;51.912;4.494;2022-07-23T12:11:59;2.42;;;1.77;;
21110;SDS011;10713;51.912;4.494;2022-07-23T12:14:25;10.27;;;2.10;;
21110;SDS011;10713;51.912;4.494;2022-07-23T12:17:11;5.80;;;2.00;;
21110;SDS011;10713;51.912;4.494;2022-07-23T12:19:37;4.72;;;2.20;;
21110;SDS011;10713;51.912;4.494;2022-07-23T12:22:03;2.88;;;1.90;;
21110;SDS011;10713;51.912;4.494;2022-07-23T12:24:29;3.40;;;1.83;;
21110;SDS011;10713;51.912;4.494;2022-07-23T12:27:08;4.70;;;1.70;;
21110;SDS011;10713;51.912;4.494;2022-07-23T12:29:35;2.70;;;1.95;;
21110;SDS011;10713;51.912;4.494;2022-07-23T12:32:01;3.75;;;2.38;;
21110;SDS011;10713;51.912;4.494;2022-07-23T12:34:26;6.78;;;2.33;;
21110;SDS011;10713;51.912;4.494;2022-07-23T12:36:52;2.50;;;1.95;;
21110;SDS011;10713;51.912;4.494;2022-07-23T12:39:35;3.63;;;2.00;;
21110;SDS011;10713;51.912;4.494;2022-07-23T12:42:01;6.45;;;2.28;;
21110;SDS011;10713;51.912;4.494;2022-07-23T12:44:26;6.82;;;2.60;;
21110;SDS011;10713;51.912;4.494;2022-07-23T12:46:52;4.55;;;2.30;;
21110;SDS011;10713;51.912;4.494;2022-07-23T12:49:27;6.30;;;2.20;;
21110;SDS011;10713;51.912;4.494;2022-07-23T12:51:53;6.03;;;2.75;;
21110;SDS011;10713;51.912;4.494;2022-07-23T12:54:19;7.65;;;2.28;;
21110;SDS011;10713;51.912;4.494;2022-07-23T12:56:53;5.20;;;2.00;;
21110;SDS011;10713;51.912;4.494;2022-07-23T12:59:18;2.95;;;2.20;;
21110;SDS011;10713;51.912;4.494;2022-07-23T13:01:46;2.78;;;1.90;;
21110;SDS011;10713;51.912;4.494;2022-07-23T13:04:20;3.33;;;2.10;;
21110;SDS011;10713;51.912;4.494;2022-07-23T13:06:50;3.83;;;2.10;;
21110;SDS011;10713;51.912;4.494;2022-07-23T13:09:18;3.40;;;1.80;;
21110;SDS011;10713;51.912;4.494;2022-07-23T13:11:45;3.90;;;2.30;;
21110;SDS011;10713;51.912;4.494;2022-07-23T13:14:12;5.13;;;2.13;;
21110;SDS011;10713;51.912;4.494;2022-07-23T13:16:38;3.92;;;2.50;;
21110;SDS011;10713;51.912;4.494;2022-07-23T13:19:05;4.50;;;2.67;;
21110;SDS011;10713;51.912;4.494;2022-07-23T13:21:31;5.60;;;2.60;;
21110;SDS011;10713;51.912;4.494;2022-07-23T13:23:57;3.25;;;2.30;;
21110;SDS011;10713;51.912;4.494;2022-07-23T13:26:23;4.32;;;2.38;;
21110;SDS011;10713;51.912;4.494;2022-07-23T13:28:48;2.28;;;2.08;;
21110;SDS011;10713;51.912;4.494;2022-07-23T13:31:15;2.50;;;2.30;;
21110;SDS011;10713;51.912;4.494;2022-07-23T13:33:41;6.47;;;2.80;;
21110;SDS011;10713;51.912;4.494;2022-07-23T13:36:07;4.53;;;1.98;;
21110;SDS011;10713;51.912;4.494;2022-07-23T13:38:32;4.10;;;2.47;;
21110;SDS011;10713;51.912;4.494;2022-07-23T13:40:58;5.70;;;2.42;;
21110;SDS011;10713;51.912;4.494;2022-07-23T13:43:24;4.72;;;2.15;;
21110;SDS011;10713;51.912;4.494;2022-07-23T13:45:50;2.28;;;1.70;;
21110;SDS011;10713;51.912;4.494;2022-07-23T13:48:18;5.25;;;2.00;;
21110;SDS011;10713;51.912;4.494;2022-07-23T13:50:44;3.15;;;2.28;;
21110;SDS011;10713;51.912;4.494;2022-07-23T13:53:15;2.78;;;2.00;;
21110;SDS011;10713;51.912;4.494;2022-07-23T13:55:41;4.32;;;2.20;;
21110;SDS011;10713;51.912;4.494;2022-07-23T13:58:08;3.55;;;1.90;;
21110;SDS011;10713;51.912;4.494;2022-07-23T14:00:35;3.20;;;2.03;;
21110;SDS011;10713;51.912;4.494;2022-07-23T14:03:02;4.25;;;2.10;;
21110;SDS011;10713;51.912;4.494;2022-07-23T14:05:28;3.17;;;2.00;;
21110;SDS011;10713;51.912;4.494;2022-07-23T14:07:54;2.75;;;2.08;;
21110;SDS011;10713;51.912;4.494;2022-07-23T14:10:20;2.40;;;1.75;;
21110;SDS011;10713;51.912;4.494;2022-07-23T14:12:46;2.97;;;1.83;;
21110;SDS011;10713;51.912;4.494;2022-07-23T14:15:13;1.90;;;1.50;;
21110;SDS011;10713;51.912;4.494;2022-07-23T14:17:40;2.72;;;1.58;;
21110;SDS011;10713;51.912;4.494;2022-07-23T14:20:07;3.50;;;1.50;;
21110;SDS011;10713;51.912;4.494;2022-07-23T14:22:34;3.60;;;2.10;;
21110;SDS011;10713;51.912;4.494;2022-07-23T14:24:59;3.85;;;1.58;;
21110;SDS011;10713;51.912;4.494;2022-07-23T14:27:25;2.03;;;1.38;;
21110;SDS011;10713;51.912;4.494;2022-07-23T14:29:52;1.70;;;1.60;;
21110;SDS011;10713;51.912;4.494;2022-07-23T14:32:17;2.22;;;1.60;;
21110;SDS011;10713;51.912;4.494;2022-07-23T14:34:43;2.00;;;1.67;;
21110;SDS011;10713;51.912;4.494;2022-07-23T14:37:09;3.28;;;1.85;;
21110;SDS011;10713;51.912;4.494;2022-07-23T14:39:36;2.50;;;1.48;;
21110;SDS011;10713;51.912;4.494;2022-07-23T14:42:01;2.47;;;1.60;;
21110;SDS011;10713;51.912;4.494;2022-07-23T14:44:27;1.60;;;1.50;;
21110;SDS011;10713;51.912;4.494;2022-07-23T14:46:52;4.38;;;1.88;;
21110;SDS011;10713;51.912;4.494;2022-07-23T14:49:18;1.95;;;1.70;;
21110;SDS011;10713;51.912;4.494;2022-07-23T14:51:43;2.15;;;1.67;;
21110;SDS011;10713;51.912;4.494;2022-07-23T14:54:09;2.83;;;1.98;;
21110;SDS011;10713;51.912;4.494;2022-07-23T14:56:35;2.10;;;1.70;;
21110;SDS011;10713;51.912;4.494;2022-07-23T14:59:01;5.05;;;2.08;;
21110;SDS011;10713;51.912;4.494;2022-07-23T15:01:28;2.20;;;2.00;;
21110;SDS011;10713;51.912;4.494;2022-07-23T15:03:53;5.43;;;2.40;;
21110;SDS011;10713;51.912;4.494;2022-07-23T15:06:18;3.67;;;2.20;;
21110;SDS011;10713;51.912;4.494;2022-07-23T15:08:44;3.28;;;2.30;;
21110;SDS011;10713;51.912;4.494;2022-07-23T15:11:09;4.28;;;2.45;;
21110;SDS011;10713;51.912;4.494;2022-07-23T15:13:35;3.65;;;2.40;;
21110;SDS011;10713;51.912;4.494;2022-07-23T15:16:02;2.33;;;2.13;;
21110;SDS011;10713;51.912;4.494;2022-07-23T15:18:28;4.38;;;2.60;;
21110;SDS011;10713;51.912;4.494;2022-07-23T15:20:54;4.28;;;2.25;;
21110;SDS011;10713;51.912;4.494;2022-07-23T15:23:19;4.28;;;2.33;;
21110;SDS011;10713;51.912;4.494;2022-07-23T15:25:44;3.60;;;2.70;;
21110;SDS011;10713;51.912;4.494;2022-07-23T15:28:10;3.70;;;2.28;;
21110;SDS011;10713;51.912;4.494;2022-07-23T15:30:35;4.63;;;2.90;;
21110;SDS011;10713;51.912;4.494;2022-07-23T15:33:00;5.30;;;3.50;;
21110;SDS011;10713;51.912;4.494;2022-07-23T15:35:26;4.43;;;3.00;;
21110;SDS011;10713;51.912;4.494;2022-07-23T15:37:51;5.97;;;3.17;;
21110;SDS011;10713;51.912;4.494;2022-07-23T15:40:17;4.30;;;2.90;;
21110;SDS011;10713;51.912;4.494;2022-07-23T15:42:42;5.75;;;3.28;;
21110;SDS011;10713;51.912;4.494;2022-07-23T15:45:07;5.32;;;3.22;;